sensor_id;sensor_type;location;lat;lon;timestamp;P1;durP1;ratioP1;P2;durP2;ratioP2
59028;SDS011;45919;51.420;5.454;2022-11-27T00:00:07;17.90;;;6.43;;
59028;SDS011;45919;51.420;5.454;2022-11-27T00:01:10;11.65;;;6.28;;
59028;SDS011;45919;51.420;5.454;2022-11-27T00:02:13;19.75;;;6.43;;
59028;SDS011;45919;51.420;5.454;2022-11-27T00:03:14;16.85;;;6.03;;
59028;SDS011;45919;51.420;5.454;2022-11-27T00:04:16;15.48;;;5.90;;
59028;SDS011;45919;51.420;5.454;2022-11-27T00:05:18;17.85;;;6.85;;
59028;SDS011;45919;51.420;5.454;2022-11-27T00:06:20;14.38;;;5.75;;
59028;SDS011;45919;51.420;5.454;2022-11-27T00:07:23;14.82;;;6.03;;
59028;SDS011;45919;51.420;5.454;2022-11-27T00:08:25;17.55;;;6.75;;
59028;SDS011;45919;51.420;5.454;2022-11-27T00:09:27;12.48;;;6.45;;
59028;SDS011;45919;51.420;5.454;2022-11-27T00:10:28;17.83;;;6.72;;
59028;SDS011;45919;51.420;5.454;2022-11-27T00:11:30;14.32;;;5.95;;
59028;SDS011;45919;51.420;5.454;2022-11-27T00:12:32;16.33;;;6.45;;
59028;SDS011;45919;51.420;5.454;2022-11-27T00:13:34;15.13;;;6.22;;
59028;SDS011;45919;51.420;5.454;2022-11-27T00:14:36;14.77;;;6.55;;
59028;SDS011;45919;51.420;5.454;2022-11-27T00:15:38;17.52;;;6.82;;
59028;SDS011;45919;51.420;5.454;2022-11-27T00:16:39;16.67;;;5.85;;
59028;SDS011;45919;51.420;5.454;2022-11-27T00:17:42;15.20;;;6.15;;
59028;SDS011;45919;51.420;5.454;2022-11-27T00:18:43;20.00;;;6.45;;
59028;SDS011;45919;51.420;5.454;2022-11-27T00:19:46;15.80;;;6.50;;
59028;SDS011;45919;51.420;5.454;2022-11-27T00:20:47;19.58;;;6.40;;
59028;SDS011;45919;51.420;5.454;2022-11-27T00:21:49;17.08;;;6.47;;
59028;SDS011;45919;51.420;5.454;2022-11-27T00:22:50;13.05;;;5.95;;
59028;SDS011;45919;51.420;5.454;2022-11-27T00:23:53;18.10;;;6.60;;
59028;SDS011;45919;51.420;5.454;2022-11-27T00:24:55;14.25;;;6.32;;
59028;SDS011;45919;51.420;5.454;2022-11-27T00:25:57;13.48;;;5.82;;
59028;SDS011;45919;51.420;5.454;2022-11-27T00:26:58;15.23;;;6.90;;
59028;SDS011;45919;51.420;5.454;2022-11-27T00:28:00;17.17;;;6.95;;
59028;SDS011;45919;51.420;5.454;2022-11-27T00:29:02;18.80;;;7.30;;
59028;SDS011;45919;51.420;5.454;2022-11-27T00:30:04;16.83;;;7.13;;
59028;SDS011;45919;51.420;5.454;2022-11-27T00:31:07;17.27;;;6.25;;
59028;SDS011;45919;51.420;5.454;2022-11-27T00:32:17;13.32;;;6.60;;
59028;SDS011;45919;51.420;5.454;2022-11-27T00:33:18;14.88;;;6.20;;
59028;SDS011;45919;51.420;5.454;2022-11-27T00:34:20;15.02;;;5.85;;
59028;SDS011;45919;51.420;5.454;2022-11-27T00:35:22;17.65;;;6.40;;
59028;SDS011;45919;51.420;5.454;2022-11-27T00:36:24;14.80;;;6.88;;
59028;SDS011;45919;51.420;5.454;2022-11-27T00:37:26;13.90;;;6.50;;
59028;SDS011;45919;51.420;5.454;2022-11-27T00:38:28;16.15;;;6.15;;
59028;SDS011;45919;51.420;5.454;2022-11-27T00:39:31;17.02;;;6.20;;
59028;SDS011;45919;51.420;5.454;2022-11-27T00:40:33;18.67;;;6.32;;
59028;SDS011;45919;51.420;5.454;2022-11-27T00:41:35;17.52;;;6.22;;
59028;SDS011;45919;51.420;5.454;2022-11-27T00:42:36;16.85;;;6.00;;
59028;SDS011;45919;51.420;5.454;2022-11-27T00:43:38;17.50;;;6.22;;
59028;SDS011;45919;51.420;5.454;2022-11-27T00:44:44;14.45;;;6.20;;
59028;SDS011;45919;51.420;5.454;2022-11-27T00:45:48;14.02;;;6.38;;
59028;SDS011;45919;51.420;5.454;2022-11-27T00:46:50;16.85;;;6.07;;
59028;SDS011;45919;51.420;5.454;2022-11-27T00:47:52;14.63;;;6.03;;
59028;SDS011;45919;51.420;5.454;2022-11-27T00:48:54;13.20;;;5.63;;
59028;SDS011;45919;51.420;5.454;2022-11-27T00:49:56;16.13;;;5.80;;
59028;SDS011;45919;51.420;5.454;2022-11-27T00:50:59;17.15;;;6.22;;
59028;SDS011;45919;51.420;5.454;2022-11-27T00:52:02;14.75;;;6.30;;
59028;SDS011;45919;51.420;5.454;2022-11-27T00:53:03;13.82;;;6.72;;
59028;SDS011;45919;51.420;5.454;2022-11-27T00:54:05;19.20;;;6.55;;
59028;SDS011;45919;51.420;5.454;2022-11-27T00:55:07;13.65;;;6.28;;
59028;SDS011;45919;51.420;5.454;2022-11-27T00:56:10;14.18;;;6.50;;
59028;SDS011;45919;51.420;5.454;2022-11-27T00:57:16;16.02;;;5.88;;
59028;SDS011;45919;51.420;5.454;2022-11-27T00:58:17;18.52;;;7.00;;
59028;SDS011;45919;51.420;5.454;2022-11-27T00:59:19;16.70;;;6.20;;
59028;SDS011;45919;51.420;5.454;2022-11-27T01:00:21;17.50;;;6.30;;
59028;SDS011;45919;51.420;5.454;2022-11-27T01:01:25;13.18;;;6.45;;
59028;SDS011;45919;51.420;5.454;2022-11-27T01:02:29;20.75;;;6.95;;
59028;SDS011;45919;51.420;5.454;2022-11-27T01:03:31;15.85;;;6.35;;
59028;SDS011;45919;51.420;5.454;2022-11-27T01:04:34;16.55;;;6.70;;
59028;SDS011;45919;51.420;5.454;2022-11-27T01:05:35;15.32;;;6.40;;
59028;SDS011;45919;51.420;5.454;2022-11-27T01:06:37;15.45;;;6.97;;
59028;SDS011;45919;51.420;5.454;2022-11-27T01:07:39;17.55;;;6.10;;
59028;SDS011;45919;51.420;5.454;2022-11-27T01:08:41;16.60;;;6.25;;
59028;SDS011;45919;51.420;5.454;2022-11-27T01:09:43;17.48;;;6.75;;
59028;SDS011;45919;51.420;5.454;2022-11-27T01:10:51;19.30;;;7.28;;
59028;SDS011;45919;51.420;5.454;2022-11-27T01:11:55;15.05;;;6.55;;
59028;SDS011;45919;51.420;5.454;2022-11-27T01:12:56;18.40;;;6.90;;
59028;SDS011;45919;51.420;5.454;2022-11-27T01:13:59;15.52;;;7.15;;
59028;SDS011;45919;51.420;5.454;2022-11-27T01:15:03;20.08;;;7.32;;
59028;SDS011;45919;51.420;5.454;2022-11-27T01:16:09;17.15;;;6.78;;
59028;SDS011;45919;51.420;5.454;2022-11-27T01:17:15;15.50;;;6.85;;
59028;SDS011;45919;51.420;5.454;2022-11-27T01:18:17;21.13;;;7.05;;
59028;SDS011;45919;51.420;5.454;2022-11-27T01:19:18;15.07;;;5.95;;
59028;SDS011;45919;51.420;5.454;2022-11-27T01:20:20;17.75;;;7.50;;
59028;SDS011;45919;51.420;5.454;2022-11-27T01:21:22;16.77;;;7.50;;
59028;SDS011;45919;51.420;5.454;2022-11-27T01:22:24;22.45;;;8.55;;
59028;SDS011;45919;51.420;5.454;2022-11-27T01:23:26;19.58;;;7.57;;
59028;SDS011;45919;51.420;5.454;2022-11-27T01:24:28;17.05;;;7.38;;
59028;SDS011;45919;51.420;5.454;2022-11-27T01:25:29;23.48;;;8.40;;
59028;SDS011;45919;51.420;5.454;2022-11-27T01:26:31;18.95;;;8.15;;
59028;SDS011;45919;51.420;5.454;2022-11-27T01:27:32;16.95;;;8.25;;
59028;SDS011;45919;51.420;5.454;2022-11-27T01:28:34;18.48;;;7.75;;
59028;SDS011;45919;51.420;5.454;2022-11-27T01:29:36;19.25;;;8.13;;
59028;SDS011;45919;51.420;5.454;2022-11-27T01:30:38;21.40;;;8.43;;
59028;SDS011;45919;51.420;5.454;2022-11-27T01:31:40;18.77;;;8.57;;
59028;SDS011;45919;51.420;5.454;2022-11-27T01:32:41;18.30;;;7.95;;
59028;SDS011;45919;51.420;5.454;2022-11-27T01:33:43;17.27;;;8.60;;
59028;SDS011;45919;51.420;5.454;2022-11-27T01:34:46;16.50;;;8.20;;
59028;SDS011;45919;51.420;5.454;2022-11-27T01:35:52;25.17;;;8.57;;
59028;SDS011;45919;51.420;5.454;2022-11-27T01:36:54;16.98;;;8.18;;
59028;SDS011;45919;51.420;5.454;2022-11-27T01:37:56;20.20;;;9.35;;
59028;SDS011;45919;51.420;5.454;2022-11-27T01:38:58;15.95;;;8.43;;
59028;SDS011;45919;51.420;5.454;2022-11-27T01:40:00;21.17;;;8.45;;
59028;SDS011;45919;51.420;5.454;2022-11-27T01:41:11;20.90;;;8.77;;
59028;SDS011;45919;51.420;5.454;2022-11-27T01:42:15;21.90;;;8.65;;
59028;SDS011;45919;51.420;5.454;2022-11-27T01:43:16;20.58;;;8.88;;
59028;SDS011;45919;51.420;5.454;2022-11-27T01:45:25;23.85;;;9.88;;
59028;SDS011;45919;51.420;5.454;2022-11-27T01:47:49;23.73;;;9.40;;
59028;SDS011;45919;51.420;5.454;2022-11-27T01:50:39;28.17;;;10.25;;
59028;SDS011;45919;51.420;5.454;2022-11-27T01:51:41;36.20;;;10.05;;
59028;SDS011;45919;51.420;5.454;2022-11-27T01:52:48;17.90;;;8.85;;
59028;SDS011;45919;51.420;5.454;2022-11-27T01:53:52;18.30;;;8.35;;
59028;SDS011;45919;51.420;5.454;2022-11-27T01:55:03;18.83;;;8.85;;
59028;SDS011;45919;51.420;5.454;2022-11-27T01:56:19;19.38;;;8.52;;
59028;SDS011;45919;51.420;5.454;2022-11-27T01:57:23;25.45;;;9.93;;
59028;SDS011;45919;51.420;5.454;2022-11-27T01:58:29;17.98;;;8.75;;
59028;SDS011;45919;51.420;5.454;2022-11-27T01:59:31;19.27;;;8.57;;
59028;SDS011;45919;51.420;5.454;2022-11-27T02:00:33;17.92;;;8.65;;
59028;SDS011;45919;51.420;5.454;2022-11-27T02:01:35;26.77;;;9.52;;
59028;SDS011;45919;51.420;5.454;2022-11-27T02:02:37;24.55;;;9.40;;
59028;SDS011;45919;51.420;5.454;2022-11-27T02:03:39;22.45;;;9.45;;
59028;SDS011;45919;51.420;5.454;2022-11-27T02:04:40;20.70;;;8.98;;
59028;SDS011;45919;51.420;5.454;2022-11-27T02:05:42;17.25;;;8.55;;
59028;SDS011;45919;51.420;5.454;2022-11-27T02:06:43;22.13;;;10.23;;
59028;SDS011;45919;51.420;5.454;2022-11-27T02:07:45;19.45;;;8.80;;
59028;SDS011;45919;51.420;5.454;2022-11-27T02:08:48;17.23;;;8.52;;
59028;SDS011;45919;51.420;5.454;2022-11-27T02:09:49;20.88;;;8.88;;
59028;SDS011;45919;51.420;5.454;2022-11-27T02:12:51;16.95;;;8.70;;
59028;SDS011;45919;51.420;5.454;2022-11-27T02:14:09;21.30;;;8.88;;
59028;SDS011;45919;51.420;5.454;2022-11-27T02:19:20;20.00;;;9.27;;
59028;SDS011;45919;51.420;5.454;2022-11-27T02:24:41;17.45;;;8.65;;
59028;SDS011;45919;51.420;5.454;2022-11-27T02:29:07;16.73;;;7.50;;
59028;SDS011;45919;51.420;5.454;2022-11-27T02:30:10;17.20;;;8.15;;
59028;SDS011;45919;51.420;5.454;2022-11-27T02:31:33;21.77;;;7.72;;
59028;SDS011;45919;51.420;5.454;2022-11-27T02:33:57;15.60;;;8.18;;
59028;SDS011;45919;51.420;5.454;2022-11-27T02:36:21;20.02;;;8.57;;
59028;SDS011;45919;51.420;5.454;2022-11-27T02:37:38;17.38;;;7.70;;
59028;SDS011;45919;51.420;5.454;2022-11-27T02:38:43;18.00;;;8.50;;
59028;SDS011;45919;51.420;5.454;2022-11-27T02:39:54;19.27;;;8.13;;
59028;SDS011;45919;51.420;5.454;2022-11-27T02:41:04;18.73;;;8.68;;
59028;SDS011;45919;51.420;5.454;2022-11-27T02:42:14;20.73;;;7.78;;
59028;SDS011;45919;51.420;5.454;2022-11-27T02:43:21;21.17;;;8.55;;
59028;SDS011;45919;51.420;5.454;2022-11-27T02:44:30;19.67;;;7.60;;
59028;SDS011;45919;51.420;5.454;2022-11-27T02:45:37;20.20;;;8.57;;
59028;SDS011;45919;51.420;5.454;2022-11-27T02:46:42;23.55;;;8.57;;
59028;SDS011;45919;51.420;5.454;2022-11-27T02:47:46;21.15;;;8.95;;
59028;SDS011;45919;51.420;5.454;2022-11-27T02:48:52;20.05;;;8.48;;
59028;SDS011;45919;51.420;5.454;2022-11-27T02:49:57;17.17;;;8.52;;
59028;SDS011;45919;51.420;5.454;2022-11-27T02:51:01;18.83;;;7.78;;
59028;SDS011;45919;51.420;5.454;2022-11-27T02:52:05;18.23;;;7.78;;
59028;SDS011;45919;51.420;5.454;2022-11-27T02:53:09;20.23;;;8.38;;
59028;SDS011;45919;51.420;5.454;2022-11-27T02:54:18;21.00;;;8.60;;
59028;SDS011;45919;51.420;5.454;2022-11-27T02:55:28;17.67;;;8.30;;
59028;SDS011;45919;51.420;5.454;2022-11-27T02:56:33;18.27;;;7.43;;
59028;SDS011;45919;51.420;5.454;2022-11-27T02:57:35;20.77;;;8.23;;
59028;SDS011;45919;51.420;5.454;2022-11-27T02:58:39;22.48;;;7.93;;
59028;SDS011;45919;51.420;5.454;2022-11-27T02:59:42;17.92;;;7.80;;
59028;SDS011;45919;51.420;5.454;2022-11-27T03:00:45;21.42;;;8.40;;
59028;SDS011;45919;51.420;5.454;2022-11-27T03:01:52;20.75;;;7.60;;
59028;SDS011;45919;51.420;5.454;2022-11-27T03:02:59;20.95;;;8.18;;
59028;SDS011;45919;51.420;5.454;2022-11-27T03:04:05;18.98;;;7.72;;
59028;SDS011;45919;51.420;5.454;2022-11-27T03:05:12;19.13;;;7.88;;
59028;SDS011;45919;51.420;5.454;2022-11-27T03:06:28;18.20;;;7.85;;
59028;SDS011;45919;51.420;5.454;2022-11-27T03:07:38;19.88;;;7.78;;
59028;SDS011;45919;51.420;5.454;2022-11-27T03:08:49;15.27;;;7.50;;
59028;SDS011;45919;51.420;5.454;2022-11-27T03:09:57;15.05;;;7.43;;
59028;SDS011;45919;51.420;5.454;2022-11-27T03:11:08;19.08;;;7.13;;
59028;SDS011;45919;51.420;5.454;2022-11-27T03:12:11;17.67;;;7.85;;
59028;SDS011;45919;51.420;5.454;2022-11-27T03:13:16;16.65;;;7.38;;
59028;SDS011;45919;51.420;5.454;2022-11-27T03:14:18;14.18;;;7.32;;
59028;SDS011;45919;51.420;5.454;2022-11-27T03:15:24;16.17;;;6.93;;
59028;SDS011;45919;51.420;5.454;2022-11-27T03:18:03;14.70;;;6.30;;
59028;SDS011;45919;51.420;5.454;2022-11-27T03:19:23;17.02;;;7.93;;
59028;SDS011;45919;51.420;5.454;2022-11-27T03:20:32;15.98;;;6.93;;
59028;SDS011;45919;51.420;5.454;2022-11-27T03:22:00;14.85;;;6.65;;
59028;SDS011;45919;51.420;5.454;2022-11-27T03:23:02;16.83;;;6.80;;
59028;SDS011;45919;51.420;5.454;2022-11-27T03:24:04;15.65;;;6.70;;
59028;SDS011;45919;51.420;5.454;2022-11-27T03:25:06;14.80;;;6.90;;
59028;SDS011;45919;51.420;5.454;2022-11-27T03:26:08;13.80;;;6.90;;
59028;SDS011;45919;51.420;5.454;2022-11-27T03:27:12;18.55;;;7.68;;
59028;SDS011;45919;51.420;5.454;2022-11-27T03:28:17;16.75;;;7.20;;
59028;SDS011;45919;51.420;5.454;2022-11-27T03:29:20;14.02;;;6.63;;
59028;SDS011;45919;51.420;5.454;2022-11-27T03:30:25;12.75;;;6.13;;
59028;SDS011;45919;51.420;5.454;2022-11-27T03:31:27;15.57;;;7.20;;
59028;SDS011;45919;51.420;5.454;2022-11-27T03:32:30;17.70;;;6.80;;
59028;SDS011;45919;51.420;5.454;2022-11-27T03:33:33;14.35;;;6.72;;
59028;SDS011;45919;51.420;5.454;2022-11-27T03:34:34;16.60;;;6.50;;
59028;SDS011;45919;51.420;5.454;2022-11-27T03:35:37;13.38;;;6.60;;
59028;SDS011;45919;51.420;5.454;2022-11-27T03:36:39;19.42;;;7.35;;
59028;SDS011;45919;51.420;5.454;2022-11-27T03:37:40;15.20;;;6.53;;
59028;SDS011;45919;51.420;5.454;2022-11-27T03:38:43;17.13;;;7.18;;
59028;SDS011;45919;51.420;5.454;2022-11-27T03:39:46;13.82;;;6.90;;
59028;SDS011;45919;51.420;5.454;2022-11-27T03:40:59;14.80;;;7.30;;
59028;SDS011;45919;51.420;5.454;2022-11-27T03:42:11;16.40;;;6.43;;
59028;SDS011;45919;51.420;5.454;2022-11-27T03:43:37;19.52;;;7.30;;
59028;SDS011;45919;51.420;5.454;2022-11-27T03:46:09;14.82;;;6.15;;
59028;SDS011;45919;51.420;5.454;2022-11-27T03:48:52;16.77;;;6.75;;
59028;SDS011;45919;51.420;5.454;2022-11-27T03:51:20;13.57;;;6.38;;
59028;SDS011;45919;51.420;5.454;2022-11-27T03:54:15;15.90;;;6.40;;
59028;SDS011;45919;51.420;5.454;2022-11-27T03:55:22;16.30;;;6.70;;
59028;SDS011;45919;51.420;5.454;2022-11-27T03:56:43;11.60;;;6.20;;
59028;SDS011;45919;51.420;5.454;2022-11-27T03:59:14;16.60;;;6.50;;
59028;SDS011;45919;51.420;5.454;2022-11-27T04:00:20;16.95;;;6.45;;
59028;SDS011;45919;51.420;5.454;2022-11-27T04:01:23;17.58;;;6.72;;
59028;SDS011;45919;51.420;5.454;2022-11-27T04:02:28;12.90;;;6.35;;
59028;SDS011;45919;51.420;5.454;2022-11-27T04:03:38;17.88;;;6.57;;
59028;SDS011;45919;51.420;5.454;2022-11-27T04:04:40;16.27;;;6.65;;
59028;SDS011;45919;51.420;5.454;2022-11-27T04:05:41;15.95;;;6.28;;
59028;SDS011;45919;51.420;5.454;2022-11-27T04:06:43;15.75;;;6.63;;
59028;SDS011;45919;51.420;5.454;2022-11-27T04:07:45;16.10;;;7.55;;
59028;SDS011;45919;51.420;5.454;2022-11-27T04:08:46;17.55;;;7.18;;
59028;SDS011;45919;51.420;5.454;2022-11-27T04:09:48;15.68;;;6.97;;
59028;SDS011;45919;51.420;5.454;2022-11-27T04:10:50;14.95;;;6.35;;
59028;SDS011;45919;51.420;5.454;2022-11-27T04:11:51;16.67;;;6.15;;
59028;SDS011;45919;51.420;5.454;2022-11-27T04:12:53;17.52;;;6.85;;
59028;SDS011;45919;51.420;5.454;2022-11-27T04:13:54;15.68;;;7.10;;
59028;SDS011;45919;51.420;5.454;2022-11-27T04:14:56;16.63;;;6.75;;
59028;SDS011;45919;51.420;5.454;2022-11-27T04:16:00;17.88;;;6.65;;
59028;SDS011;45919;51.420;5.454;2022-11-27T04:17:03;18.10;;;6.88;;
59028;SDS011;45919;51.420;5.454;2022-11-27T04:18:05;16.80;;;6.57;;
59028;SDS011;45919;51.420;5.454;2022-11-27T04:19:06;17.42;;;6.95;;
59028;SDS011;45919;51.420;5.454;2022-11-27T04:20:11;14.65;;;6.55;;
59028;SDS011;45919;51.420;5.454;2022-11-27T04:21:14;16.48;;;6.13;;
59028;SDS011;45919;51.420;5.454;2022-11-27T04:22:17;14.48;;;6.60;;
59028;SDS011;45919;51.420;5.454;2022-11-27T04:23:19;15.77;;;6.28;;
59028;SDS011;45919;51.420;5.454;2022-11-27T04:24:20;11.73;;;6.97;;
59028;SDS011;45919;51.420;5.454;2022-11-27T04:25:22;15.73;;;6.20;;
59028;SDS011;45919;51.420;5.454;2022-11-27T04:26:24;16.25;;;6.20;;
59028;SDS011;45919;51.420;5.454;2022-11-27T04:27:25;13.52;;;6.32;;
59028;SDS011;45919;51.420;5.454;2022-11-27T04:28:27;13.30;;;6.22;;
59028;SDS011;45919;51.420;5.454;2022-11-27T04:29:28;17.13;;;6.45;;
59028;SDS011;45919;51.420;5.454;2022-11-27T04:30:30;18.67;;;5.88;;
59028;SDS011;45919;51.420;5.454;2022-11-27T04:31:31;16.15;;;6.47;;
59028;SDS011;45919;51.420;5.454;2022-11-27T04:32:33;13.75;;;6.32;;
59028;SDS011;45919;51.420;5.454;2022-11-27T04:33:35;14.98;;;6.38;;
59028;SDS011;45919;51.420;5.454;2022-11-27T04:34:36;14.50;;;5.63;;
59028;SDS011;45919;51.420;5.454;2022-11-27T04:35:38;14.88;;;6.28;;
59028;SDS011;45919;51.420;5.454;2022-11-27T04:36:39;12.90;;;6.65;;
59028;SDS011;45919;51.420;5.454;2022-11-27T04:37:42;16.15;;;6.57;;
59028;SDS011;45919;51.420;5.454;2022-11-27T04:38:44;15.55;;;6.15;;
59028;SDS011;45919;51.420;5.454;2022-11-27T04:39:45;12.23;;;6.70;;
59028;SDS011;45919;51.420;5.454;2022-11-27T04:40:47;17.77;;;6.88;;
59028;SDS011;45919;51.420;5.454;2022-11-27T04:41:51;13.82;;;6.55;;
59028;SDS011;45919;51.420;5.454;2022-11-27T04:42:52;13.38;;;6.07;;
59028;SDS011;45919;51.420;5.454;2022-11-27T04:43:54;16.63;;;6.65;;
59028;SDS011;45919;51.420;5.454;2022-11-27T04:44:55;14.50;;;6.55;;
59028;SDS011;45919;51.420;5.454;2022-11-27T04:45:57;14.90;;;6.15;;
59028;SDS011;45919;51.420;5.454;2022-11-27T04:46:58;13.55;;;6.68;;
59028;SDS011;45919;51.420;5.454;2022-11-27T04:48:00;16.02;;;6.10;;
59028;SDS011;45919;51.420;5.454;2022-11-27T04:49:02;12.43;;;6.30;;
59028;SDS011;45919;51.420;5.454;2022-11-27T04:50:04;13.65;;;6.70;;
59028;SDS011;45919;51.420;5.454;2022-11-27T04:51:06;18.65;;;7.05;;
59028;SDS011;45919;51.420;5.454;2022-11-27T04:52:07;17.20;;;6.35;;
59028;SDS011;45919;51.420;5.454;2022-11-27T04:53:11;14.52;;;5.90;;
59028;SDS011;45919;51.420;5.454;2022-11-27T04:54:12;15.82;;;6.53;;
59028;SDS011;45919;51.420;5.454;2022-11-27T04:55:14;17.17;;;6.43;;
59028;SDS011;45919;51.420;5.454;2022-11-27T04:56:15;14.00;;;5.72;;
59028;SDS011;45919;51.420;5.454;2022-11-27T04:57:17;11.15;;;5.38;;
59028;SDS011;45919;51.420;5.454;2022-11-27T04:58:18;17.67;;;7.10;;
59028;SDS011;45919;51.420;5.454;2022-11-27T04:59:20;14.10;;;6.30;;
59028;SDS011;45919;51.420;5.454;2022-11-27T05:00:22;14.60;;;5.95;;
59028;SDS011;45919;51.420;5.454;2022-11-27T05:01:24;12.05;;;5.95;;
59028;SDS011;45919;51.420;5.454;2022-11-27T05:02:25;14.35;;;6.28;;
59028;SDS011;45919;51.420;5.454;2022-11-27T05:03:27;13.00;;;6.03;;
59028;SDS011;45919;51.420;5.454;2022-11-27T05:04:28;13.00;;;5.85;;
59028;SDS011;45919;51.420;5.454;2022-11-27T05:05:30;15.23;;;5.95;;
59028;SDS011;45919;51.420;5.454;2022-11-27T05:06:32;16.50;;;6.97;;
59028;SDS011;45919;51.420;5.454;2022-11-27T05:07:33;11.25;;;5.80;;
59028;SDS011;45919;51.420;5.454;2022-11-27T05:08:35;14.20;;;6.40;;
59028;SDS011;45919;51.420;5.454;2022-11-27T05:09:36;14.88;;;5.95;;
59028;SDS011;45919;51.420;5.454;2022-11-27T05:10:38;16.60;;;6.10;;
59028;SDS011;45919;51.420;5.454;2022-11-27T05:11:39;13.82;;;5.80;;
59028;SDS011;45919;51.420;5.454;2022-11-27T05:12:41;15.38;;;6.20;;
59028;SDS011;45919;51.420;5.454;2022-11-27T05:13:43;15.88;;;6.63;;
59028;SDS011;45919;51.420;5.454;2022-11-27T05:14:44;12.57;;;6.13;;
59028;SDS011;45919;51.420;5.454;2022-11-27T05:15:46;12.07;;;5.75;;
59028;SDS011;45919;51.420;5.454;2022-11-27T05:16:51;17.70;;;6.80;;
59028;SDS011;45919;51.420;5.454;2022-11-27T05:17:54;14.15;;;6.60;;
59028;SDS011;45919;51.420;5.454;2022-11-27T05:18:56;17.95;;;6.32;;
59028;SDS011;45919;51.420;5.454;2022-11-27T05:19:58;12.35;;;6.15;;
59028;SDS011;45919;51.420;5.454;2022-11-27T05:21:05;11.95;;;5.78;;
59028;SDS011;45919;51.420;5.454;2022-11-27T05:22:08;11.18;;;6.20;;
59028;SDS011;45919;51.420;5.454;2022-11-27T05:23:09;13.50;;;5.68;;
59028;SDS011;45919;51.420;5.454;2022-11-27T05:24:12;11.10;;;5.22;;
59028;SDS011;45919;51.420;5.454;2022-11-27T05:25:14;14.90;;;6.03;;
59028;SDS011;45919;51.420;5.454;2022-11-27T05:26:16;13.32;;;5.90;;
59028;SDS011;45919;51.420;5.454;2022-11-27T05:27:17;12.57;;;5.40;;
59028;SDS011;45919;51.420;5.454;2022-11-27T05:28:19;13.48;;;6.35;;
59028;SDS011;45919;51.420;5.454;2022-11-27T05:29:25;14.95;;;5.90;;
59028;SDS011;45919;51.420;5.454;2022-11-27T05:30:27;11.50;;;5.32;;
59028;SDS011;45919;51.420;5.454;2022-11-27T05:31:28;13.90;;;5.63;;
59028;SDS011;45919;51.420;5.454;2022-11-27T05:32:30;11.70;;;5.28;;
59028;SDS011;45919;51.420;5.454;2022-11-27T05:33:32;13.88;;;5.82;;
59028;SDS011;45919;51.420;5.454;2022-11-27T05:34:33;16.95;;;5.40;;
59028;SDS011;45919;51.420;5.454;2022-11-27T05:35:35;14.32;;;5.78;;
59028;SDS011;45919;51.420;5.454;2022-11-27T05:36:36;14.15;;;5.43;;
59028;SDS011;45919;51.420;5.454;2022-11-27T05:37:39;15.85;;;5.78;;
59028;SDS011;45919;51.420;5.454;2022-11-27T05:38:40;13.05;;;5.57;;
59028;SDS011;45919;51.420;5.454;2022-11-27T05:39:42;9.88;;;5.22;;
59028;SDS011;45919;51.420;5.454;2022-11-27T05:40:44;15.52;;;5.25;;
59028;SDS011;45919;51.420;5.454;2022-11-27T05:41:45;11.77;;;5.70;;
59028;SDS011;45919;51.420;5.454;2022-11-27T05:42:47;10.52;;;5.32;;
59028;SDS011;45919;51.420;5.454;2022-11-27T05:43:48;13.75;;;6.00;;
59028;SDS011;45919;51.420;5.454;2022-11-27T05:44:50;14.48;;;5.75;;
59028;SDS011;45919;51.420;5.454;2022-11-27T05:45:54;16.95;;;5.35;;
59028;SDS011;45919;51.420;5.454;2022-11-27T05:46:55;13.10;;;5.47;;
59028;SDS011;45919;51.420;5.454;2022-11-27T05:47:57;10.13;;;5.22;;
59028;SDS011;45919;51.420;5.454;2022-11-27T05:48:58;9.80;;;4.75;;
59028;SDS011;45919;51.420;5.454;2022-11-27T05:50:00;10.85;;;4.78;;
59028;SDS011;45919;51.420;5.454;2022-11-27T05:51:02;14.25;;;5.40;;
59028;SDS011;45919;51.420;5.454;2022-11-27T05:52:04;11.48;;;5.18;;
59028;SDS011;45919;51.420;5.454;2022-11-27T05:53:06;10.90;;;5.13;;
59028;SDS011;45919;51.420;5.454;2022-11-27T05:54:08;14.27;;;5.40;;
59028;SDS011;45919;51.420;5.454;2022-11-27T05:55:10;11.88;;;5.00;;
59028;SDS011;45919;51.420;5.454;2022-11-27T05:56:13;11.80;;;5.22;;
59028;SDS011;45919;51.420;5.454;2022-11-27T05:57:16;11.20;;;5.18;;
59028;SDS011;45919;51.420;5.454;2022-11-27T05:58:18;12.55;;;4.72;;
59028;SDS011;45919;51.420;5.454;2022-11-27T05:59:19;13.65;;;4.97;;
59028;SDS011;45919;51.420;5.454;2022-11-27T06:00:21;10.90;;;4.60;;
59028;SDS011;45919;51.420;5.454;2022-11-27T06:01:23;14.18;;;5.20;;
59028;SDS011;45919;51.420;5.454;2022-11-27T06:02:25;12.18;;;5.10;;
59028;SDS011;45919;51.420;5.454;2022-11-27T06:03:29;9.85;;;4.78;;
59028;SDS011;45919;51.420;5.454;2022-11-27T06:04:33;11.23;;;5.00;;
59028;SDS011;45919;51.420;5.454;2022-11-27T06:05:39;11.75;;;5.43;;
59028;SDS011;45919;51.420;5.454;2022-11-27T06:06:41;10.88;;;4.90;;
59028;SDS011;45919;51.420;5.454;2022-11-27T06:07:42;12.98;;;5.20;;
59028;SDS011;45919;51.420;5.454;2022-11-27T06:08:44;10.93;;;4.88;;
59028;SDS011;45919;51.420;5.454;2022-11-27T06:09:47;13.52;;;5.25;;
59028;SDS011;45919;51.420;5.454;2022-11-27T06:10:48;12.90;;;5.28;;
59028;SDS011;45919;51.420;5.454;2022-11-27T06:11:50;15.35;;;4.68;;
59028;SDS011;45919;51.420;5.454;2022-11-27T06:12:52;14.30;;;5.72;;
59028;SDS011;45919;51.420;5.454;2022-11-27T06:13:53;9.52;;;4.68;;
59028;SDS011;45919;51.420;5.454;2022-11-27T06:14:55;15.45;;;5.97;;
59028;SDS011;45919;51.420;5.454;2022-11-27T06:15:56;12.45;;;4.95;;
59028;SDS011;45919;51.420;5.454;2022-11-27T06:16:58;11.57;;;5.10;;
59028;SDS011;45919;51.420;5.454;2022-11-27T06:18:00;10.30;;;5.20;;
59028;SDS011;45919;51.420;5.454;2022-11-27T06:19:01;13.15;;;5.45;;
59028;SDS011;45919;51.420;5.454;2022-11-27T06:20:03;12.60;;;4.65;;
59028;SDS011;45919;51.420;5.454;2022-11-27T06:21:06;12.95;;;4.80;;
59028;SDS011;45919;51.420;5.454;2022-11-27T06:22:09;11.50;;;5.00;;
59028;SDS011;45919;51.420;5.454;2022-11-27T06:23:12;12.25;;;5.00;;
59028;SDS011;45919;51.420;5.454;2022-11-27T06:24:14;14.07;;;4.90;;
59028;SDS011;45919;51.420;5.454;2022-11-27T06:25:16;11.30;;;5.15;;
59028;SDS011;45919;51.420;5.454;2022-11-27T06:26:21;10.63;;;4.60;;
59028;SDS011;45919;51.420;5.454;2022-11-27T06:27:25;11.60;;;5.13;;
59028;SDS011;45919;51.420;5.454;2022-11-27T06:28:26;12.75;;;4.88;;
59028;SDS011;45919;51.420;5.454;2022-11-27T06:29:28;11.27;;;4.75;;
59028;SDS011;45919;51.420;5.454;2022-11-27T06:30:30;10.38;;;4.40;;
59028;SDS011;45919;51.420;5.454;2022-11-27T06:31:32;8.00;;;4.50;;
59028;SDS011;45919;51.420;5.454;2022-11-27T06:32:34;13.90;;;4.72;;
59028;SDS011;45919;51.420;5.454;2022-11-27T06:33:36;10.10;;;4.53;;
59028;SDS011;45919;51.420;5.454;2022-11-27T06:34:38;11.50;;;4.57;;
59028;SDS011;45919;51.420;5.454;2022-11-27T06:35:39;12.27;;;4.90;;
59028;SDS011;45919;51.420;5.454;2022-11-27T06:36:41;11.48;;;4.88;;
59028;SDS011;45919;51.420;5.454;2022-11-27T06:37:42;11.43;;;4.57;;
59028;SDS011;45919;51.420;5.454;2022-11-27T06:38:44;11.57;;;4.47;;
59028;SDS011;45919;51.420;5.454;2022-11-27T06:39:47;10.57;;;4.80;;
59028;SDS011;45919;51.420;5.454;2022-11-27T06:40:49;7.90;;;4.72;;
59028;SDS011;45919;51.420;5.454;2022-11-27T06:41:50;11.30;;;4.82;;
59028;SDS011;45919;51.420;5.454;2022-11-27T06:42:52;12.32;;;4.90;;
59028;SDS011;45919;51.420;5.454;2022-11-27T06:43:54;11.10;;;4.38;;
59028;SDS011;45919;51.420;5.454;2022-11-27T06:44:58;10.32;;;4.63;;
59028;SDS011;45919;51.420;5.454;2022-11-27T06:46:00;13.57;;;5.07;;